sensor_id;sensor_type;location;lat;lon;timestamp;pressure;altitude;pressure_sealevel;temperature;humidity
69980;BME280;57318;56.232;43.944;2023-05-15T00:00:13;99845.06;;;7.61;61.17
69980;BME280;57318;56.232;43.944;2023-05-15T00:02:39;99846.97;;;7.58;61.34
69980;BME280;57318;56.232;43.944;2023-05-15T00:05:06;99848.00;;;7.56;61.33
69980;BME280;57318;56.232;43.944;2023-05-15T00:07:33;99849.06;;;7.53;61.50
69980;BME280;57318;56.232;43.944;2023-05-15T00:10:00;99849.25;;;7.50;61.50
69980;BME280;57318;56.232;43.944;2023-05-15T00:12:26;99851.13;;;7.48;61.84
69980;BME280;57318;56.232;43.944;2023-05-15T00:14:52;99850.44;;;7.45;61.97
69980;BME280;57318;56.232;43.944;2023-05-15T00:17:17;99853.19;;;7.43;61.96
69980;BME280;57318;56.232;43.944;2023-05-15T00:19:44;99852.53;;;7.39;62.35
69980;BME280;57318;56.232;43.944;2023-05-15T00:22:10;99853.63;;;7.35;62.52
69980;BME280;57318;56.232;43.944;2023-05-15T00:24:36;99855.44;;;7.35;62.71
69980;BME280;57318;56.232;43.944;2023-05-15T00:27:01;99851.97;;;7.34;62.92
69980;BME280;57318;56.232;43.944;2023-05-15T00:29:27;99852.88;;;7.33;62.65
69980;BME280;57318;56.232;43.944;2023-05-15T00:31:53;99853.81;;;7.32;63.08
69980;BME280;57318;56.232;43.944;2023-05-15T00:34:20;99853.91;;;7.31;62.92
69980;BME280;57318;56.232;43.944;2023-05-15T00:36:45;99845.16;;;7.30;62.71
69980;BME280;57318;56.232;43.944;2023-05-15T00:39:11;99853.25;;;7.27;62.64
69980;BME280;57318;56.232;43.944;2023-05-15T00:41:37;99843.53;;;7.28;62.70
69980;BME280;57318;56.232;43.944;2023-05-15T00:44:05;99833.91;;;7.27;62.64
69980;BME280;57318;56.232;43.944;2023-05-15T00:46:33;99842.69;;;7.27;62.52
69980;BME280;57318;56.232;43.944;2023-05-15T00:49:00;99845.31;;;7.27;62.68
69980;BME280;57318;56.232;43.944;2023-05-15T00:51:27;99849.78;;;7.27;62.77
69980;BME280;57318;56.232;43.944;2023-05-15T00:53:53;99844.66;;;7.23;62.88
69980;BME280;57318;56.232;43.944;2023-05-15T00:56:21;99845.59;;;7.22;62.67
69980;BME280;57318;56.232;43.944;2023-05-15T00:58:48;99851.72;;;7.23;62.67
69980;BME280;57318;56.232;43.944;2023-05-15T01:01:17;99845.41;;;7.26;62.70
69980;BME280;57318;56.232;43.944;2023-05-15T01:03:44;99847.03;;;7.28;62.65
69980;BME280;57318;56.232;43.944;2023-05-15T01:06:11;99846.94;;;7.30;62.75
69980;BME280;57318;56.232;43.944;2023-05-15T01:08:43;99843.34;;;7.31;63.10
69980;BME280;57318;56.232;43.944;2023-05-15T01:11:11;99845.97;;;7.31;62.96
69980;BME280;57318;56.232;43.944;2023-05-15T01:13:38;99847.03;;;7.28;62.89
69980;BME280;57318;56.232;43.944;2023-05-15T01:16:04;99849.50;;;7.31;63.22
69980;BME280;57318;56.232;43.944;2023-05-15T01:18:31;99846.59;;;7.36;62.98
69980;BME280;57318;56.232;43.944;2023-05-15T01:23:44;99848.78;;;7.44;62.73
69980;BME280;57318;56.232;43.944;2023-05-15T01:29:14;99857.91;;;7.67;62.46
69980;BME280;57318;56.232;43.944;2023-05-15T01:31:44;99857.34;;;7.76;62.45
69980;BME280;57318;56.232;43.944;2023-05-15T01:34:16;99858.50;;;7.86;61.90
69980;BME280;57318;56.232;43.944;2023-05-15T01:36:55;99858.31;;;7.89;61.56
69980;BME280;57318;56.232;43.944;2023-05-15T01:39:26;99862.06;;;8.00;61.17
69980;BME280;57318;56.232;43.944;2023-05-15T01:42:02;99866.97;;;8.06;60.37
69980;BME280;57318;56.232;43.944;2023-05-15T01:44:34;99867.63;;;8.09;60.13
69980;BME280;57318;56.232;43.944;2023-05-15T01:47:05;99866.59;;;8.12;59.92
69980;BME280;57318;56.232;43.944;2023-05-15T01:49:34;99868.13;;;8.16;59.88
69980;BME280;57318;56.232;43.944;2023-05-15T01:52:14;99862.63;;;8.19;59.82
69980;BME280;57318;56.232;43.944;2023-05-15T01:54:41;99859.88;;;8.21;59.81
69980;BME280;57318;56.232;43.944;2023-05-15T01:57:08;99863.72;;;8.29;59.96
69980;BME280;57318;56.232;43.944;2023-05-15T01:59:36;99861.63;;;8.35;59.58
69980;BME280;57318;56.232;43.944;2023-05-15T02:02:03;99863.72;;;8.44;59.31
69980;BME280;57318;56.232;43.944;2023-05-15T02:04:29;99860.28;;;8.56;59.11
69980;BME280;57318;56.232;43.944;2023-05-15T02:06:56;99862.13;;;8.69;58.81
69980;BME280;57318;56.232;43.944;2023-05-15T02:09:22;99861.88;;;8.86;58.32
69980;BME280;57318;56.232;43.944;2023-05-15T02:11:49;99865.31;;;9.01;57.58
69980;BME280;57318;56.232;43.944;2023-05-15T02:14:16;99868.72;;;9.16;57.08
69980;BME280;57318;56.232;43.944;2023-05-15T02:16:42;99859.94;;;9.28;56.82
69980;BME280;57318;56.232;43.944;2023-05-15T02:19:07;99864.53;;;9.39;56.81
69980;BME280;57318;56.232;43.944;2023-05-15T02:21:34;99861.97;;;9.50;57.01
69980;BME280;57318;56.232;43.944;2023-05-15T02:24:00;99872.78;;;9.60;56.56
69980;BME280;57318;56.232;43.944;2023-05-15T02:29:18;99868.53;;;9.83;56.22
69980;BME280;57318;56.232;43.944;2023-05-15T02:32:04;99873.94;;;9.94;56.40
69980;BME280;57318;56.232;43.944;2023-05-15T02:37:26;99865.50;;;10.14;55.51
69980;BME280;57318;56.232;43.944;2023-05-15T02:39:54;99865.63;;;10.25;55.13
69980;BME280;57318;56.232;43.944;2023-05-15T02:42:20;99855.50;;;10.30;54.71
69980;BME280;57318;56.232;43.944;2023-05-15T02:44:47;99868.03;;;10.41;54.00
69980;BME280;57318;56.232;43.944;2023-05-15T02:47:13;99868.44;;;10.47;53.96
69980;BME280;57318;56.232;43.944;2023-05-15T02:49:40;99870.53;;;10.55;54.00
69980;BME280;57318;56.232;43.944;2023-05-15T02:52:06;99874.44;;;10.62;53.48
69980;BME280;57318;56.232;43.944;2023-05-15T02:54:32;99875.81;;;10.68;53.68
69980;BME280;57318;56.232;43.944;2023-05-15T02:56:57;99877.91;;;10.76;53.22
69980;BME280;57318;56.232;43.944;2023-05-15T02:59:23;99877.31;;;10.83;53.14
69980;BME280;57318;56.232;43.944;2023-05-15T03:01:49;99879.91;;;10.96;52.69
69980;BME280;57318;56.232;43.944;2023-05-15T03:04:15;99872.84;;;11.08;52.91
69980;BME280;57318;56.232;43.944;2023-05-15T03:06:41;99879.03;;;11.20;52.70
69980;BME280;57318;56.232;43.944;2023-05-15T03:09:07;99881.13;;;11.28;52.73
69980;BME280;57318;56.232;43.944;2023-05-15T03:11:32;99884.88;;;11.36;53.15
69980;BME280;57318;56.232;43.944;2023-05-15T03:13:58;99871.72;;;11.46;53.34
69980;BME280;57318;56.232;43.944;2023-05-15T03:16:27;99879.72;;;11.58;53.20
69980;BME280;57318;56.232;43.944;2023-05-15T03:18:53;99881.31;;;11.71;52.95
69980;BME280;57318;56.232;43.944;2023-05-15T03:21:19;99877.84;;;11.82;53.16
69980;BME280;57318;56.232;43.944;2023-05-15T03:23:45;99887.13;;;11.88;52.95
69980;BME280;57318;56.232;43.944;2023-05-15T03:26:10;99882.59;;;12.01;52.30
69980;BME280;57318;56.232;43.944;2023-05-15T03:28:36;99882.56;;;12.13;51.99
69980;BME280;57318;56.232;43.944;2023-05-15T03:31:02;99878.06;;;12.24;51.61
69980;BME280;57318;56.232;43.944;2023-05-15T03:33:33;99886.06;;;12.36;51.45
69980;BME280;57318;56.232;43.944;2023-05-15T03:35:59;99894.03;;;12.47;50.77
69980;BME280;57318;56.232;43.944;2023-05-15T03:38:25;99884.06;;;12.60;49.90
69980;BME280;57318;56.232;43.944;2023-05-15T03:40:50;99891.31;;;12.70;50.22
69980;BME280;57318;56.232;43.944;2023-05-15T03:43:16;99891.53;;;12.78;50.80
69980;BME280;57318;56.232;43.944;2023-05-15T03:45:42;99900.59;;;12.87;50.66
69980;BME280;57318;56.232;43.944;2023-05-15T03:48:08;99908.69;;;12.96;50.32
69980;BME280;57318;56.232;43.944;2023-05-15T03:50:34;99896.69;;;13.02;50.35
69980;BME280;57318;56.232;43.944;2023-05-15T03:53:00;99900.38;;;13.11;50.30
69980;BME280;57318;56.232;43.944;2023-05-15T03:55:26;99905.59;;;13.12;49.94
69980;BME280;57318;56.232;43.944;2023-05-15T03:57:51;99909.31;;;13.21;49.62
69980;BME280;57318;56.232;43.944;2023-05-15T04:00:18;99911.22;;;13.30;49.44
69980;BME280;57318;56.232;43.944;2023-05-15T04:02:43;99912.41;;;13.38;49.68
69980;BME280;57318;56.232;43.944;2023-05-15T04:05:09;99918.22;;;13.43;49.53
69980;BME280;57318;56.232;43.944;2023-05-15T04:07:36;99916.59;;;13.51;49.44
69980;BME280;57318;56.232;43.944;2023-05-15T04:10:02;99918.47;;;13.61;49.39
69980;BME280;57318;56.232;43.944;2023-05-15T04:12:34;99914.72;;;13.63;49.72
69980;BME280;57318;56.232;43.944;2023-05-15T04:15:17;99911.41;;;13.71;49.67
69980;BME280;57318;56.232;43.944;2023-05-15T04:17:44;99912.28;;;13.81;49.30
69980;BME280;57318;56.232;43.944;2023-05-15T04:20:12;99909.13;;;13.97;49.42
69980;BME280;57318;56.232;43.944;2023-05-15T04:22:40;99902.44;;;14.13;49.23
69980;BME280;57318;56.232;43.944;2023-05-15T04:25:07;99902.97;;;14.37;48.11
69980;BME280;57318;56.232;43.944;2023-05-15T04:27:34;99911.25;;;14.65;47.56
69980;BME280;57318;56.232;43.944;2023-05-15T04:30:00;99912.25;;;14.84;46.84
69980;BME280;57318;56.232;43.944;2023-05-15T04:32:26;99917.19;;;14.98;46.29
69980;BME280;57318;56.232;43.944;2023-05-15T04:34:52;99915.22;;;15.00;45.28
69980;BME280;57318;56.232;43.944;2023-05-15T04:37:18;99913.38;;;14.91;46.19
69980;BME280;57318;56.232;43.944;2023-05-15T04:39:44;99907.00;;;14.63;46.53
69980;BME280;57318;56.232;43.944;2023-05-15T04:42:09;99923.19;;;14.30;47.58
69980;BME280;57318;56.232;43.944;2023-05-15T04:44:35;99914.16;;;13.90;47.93
69980;BME280;57318;56.232;43.944;2023-05-15T04:47:01;99914.97;;;13.60;48.80
69980;BME280;57318;56.232;43.944;2023-05-15T04:49:27;99925.50;;;13.41;49.11
69980;BME280;57318;56.232;43.944;2023-05-15T04:51:53;99915.75;;;13.18;49.46
69980;BME280;57318;56.232;43.944;2023-05-15T04:54:19;99921.84;;;13.21;49.07
69980;BME280;57318;56.232;43.944;2023-05-15T04:56:45;99920.31;;;13.28;48.95
69980;BME280;57318;56.232;43.944;2023-05-15T04:59:11;99921.28;;;13.38;48.74
69980;BME280;57318;56.232;43.944;2023-05-15T05:01:38;99932.03;;;13.48;48.48
69980;BME280;57318;56.232;43.944;2023-05-15T05:04:04;99919.75;;;13.57;48.26
69980;BME280;57318;56.232;43.944;2023-05-15T05:06:29;99922.25;;;13.58;48.07
69980;BME280;57318;56.232;43.944;2023-05-15T05:08:55;99927.59;;;13.58;47.70
69980;BME280;57318;56.232;43.944;2023-05-15T05:11:21;99919.88;;;13.55;47.65
69980;BME280;57318;56.232;43.944;2023-05-15T05:13:48;99923.63;;;13.52;48.21
69980;BME280;57318;56.232;43.944;2023-05-15T05:16:13;99919.66;;;13.47;47.55
69980;BME280;57318;56.232;43.944;2023-05-15T05:18:39;99916.97;;;13.47;47.78
69980;BME280;57318;56.232;43.944;2023-05-15T05:21:05;99921.81;;;13.53;47.75
69980;BME280;57318;56.232;43.944;2023-05-15T05:23:31;99915.44;;;13.65;47.13
69980;BME280;57318;56.232;43.944;2023-05-15T05:25:58;99916.22;;;13.77;45.90
69980;BME280;57318;56.232;43.944;2023-05-15T05:28:24;99916.47;;;13.74;44.39
69980;BME280;57318;56.232;43.944;2023-05-15T05:30:50;99913.16;;;13.82;44.43
69980;BME280;57318;56.232;43.944;2023-05-15T05:33:16;99909.38;;;13.94;44.06
69980;BME280;57318;56.232;43.944;2023-05-15T05:35:41;99912.97;;;14.04;43.74
69980;BME280;57318;56.232;43.944;2023-05-15T05:38:07;99908.50;;;14.15;43.38
69980;BME280;57318;56.232;43.944;2023-05-15T05:40:33;99914.03;;;14.23;42.99
69980;BME280;57318;56.232;43.944;2023-05-15T05:42:59;99907.75;;;14.34;42.93
69980;BME280;57318;56.232;43.944;2023-05-15T05:45:26;99902.84;;;14.49;42.46
69980;BME280;57318;56.232;43.944;2023-05-15T05:47:52;99895.19;;;14.65;41.30
69980;BME280;57318;56.232;43.944;2023-05-15T05:50:17;99899.72;;;14.84;40.29
69980;BME280;57318;56.232;43.944;2023-05-15T05:52:43;99906.78;;;14.95;40.38
69980;BME280;57318;56.232;43.944;2023-05-15T05:55:09;99906.50;;;15.18;40.07
69980;BME280;57318;56.232;43.944;2023-05-15T05:57:35;99915.50;;;15.36;39.36
69980;BME280;57318;56.232;43.944;2023-05-15T06:00:00;99916.47;;;15.45;38.98
69980;BME280;57318;56.232;43.944;2023-05-15T06:02:28;99912.97;;;15.44;38.88
69980;BME280;57318;56.232;43.944;2023-05-15T06:04:54;99907.00;;;15.60;38.29
69980;BME280;57318;56.232;43.944;2023-05-15T06:07:21;99903.47;;;15.69;37.76
69980;BME280;57318;56.232;43.944;2023-05-15T06:09:46;99903.72;;;15.76;37.52
69980;BME280;57318;56.232;43.944;2023-05-15T06:12:13;99891.78;;;15.80;37.19
69980;BME280;57318;56.232;43.944;2023-05-15T06:14:38;99894.84;;;15.85;37.34
69980;BME280;57318;56.232;43.944;2023-05-15T06:17:04;99897.63;;;15.94;36.53
69980;BME280;57318;56.232;43.944;2023-05-15T06:19:30;99895.94;;;16.02;35.86
69980;BME280;57318;56.232;43.944;2023-05-15T06:21:56;99895.06;;;16.12;35.37
69980;BME280;57318;56.232;43.944;2023-05-15T06:24:22;99893.31;;;16.20;35.99
69980;BME280;57318;56.232;43.944;2023-05-15T06:26:48;99899.09;;;16.26;35.31
69980;BME280;57318;56.232;43.944;2023-05-15T06:29:14;99904.19;;;16.47;34.94
69980;BME280;57318;56.232;43.944;2023-05-15T06:31:39;99903.06;;;16.95;33.77
69980;BME280;57318;56.232;43.944;2023-05-15T06:34:05;99912.31;;;17.81;32.82
69980;BME280;57318;56.232;43.944;2023-05-15T06:36:31;99912.22;;;19.76;30.22
69980;BME280;57318;56.232;43.944;2023-05-15T06:38:56;99924.69;;;22.04;27.37
69980;BME280;57318;56.232;43.944;2023-05-15T06:41:22;99928.44;;;24.13;23.17
69980;BME280;57318;56.232;43.944;2023-05-15T06:43:48;99930.72;;;26.34;20.33
69980;BME280;57318;56.232;43.944;2023-05-15T06:46:14;99922.41;;;27.69;18.96
69980;BME280;57318;56.232;43.944;2023-05-15T06:48:41;99921.91;;;28.41;17.68
69980;BME280;57318;56.232;43.944;2023-05-15T06:51:07;99930.56;;;28.57;17.08
69980;BME280;57318;56.232;43.944;2023-05-15T06:53:32;99931.47;;;28.32;17.52
69980;BME280;57318;56.232;43.944;2023-05-15T06:55:58;99930.97;;;29.63;16.35
69980;BME280;57318;56.232;43.944;2023-05-15T06:58:24;99945.22;;;30.60;15.95
69980;BME280;57318;56.232;43.944;2023-05-15T07:00:50;99935.69;;;30.91;15.32
69980;BME280;57318;56.232;43.944;2023-05-15T07:03:15;99935.75;;;30.39;15.34
69980;BME280;57318;56.232;43.944;2023-05-15T07:05:42;99934.78;;;30.21;15.31
69980;BME280;57318;56.232;43.944;2023-05-15T07:08:07;99927.22;;;29.46;16.42
69980;BME280;57318;56.232;43.944;2023-05-15T07:10:33;99922.47;;;28.99;16.77
69980;BME280;57318;56.232;43.944;2023-05-15T07:12:59;99930.09;;;28.23;17.35
69980;BME280;57318;56.232;43.944;2023-05-15T07:15:24;99919.94;;;28.30;17.45
69980;BME280;57318;56.232;43.944;2023-05-15T07:17:50;99915.97;;;29.78;16.19
69980;BME280;57318;56.232;43.944;2023-05-15T07:20:19;99923.19;;;31.75;14.48
69980;BME280;57318;56.232;43.944;2023-05-15T07:22:45;99930.56;;;33.19;13.18
69980;BME280;57318;56.232;43.944;2023-05-15T07:25:10;99934.38;;;33.78;12.25
69980;BME280;57318;56.232;43.944;2023-05-15T07:27:36;99940.22;;;35.13;11.67
69980;BME280;57318;56.232;43.944;2023-05-15T07:30:03;99930.44;;;36.49;10.69
69980;BME280;57318;56.232;43.944;2023-05-15T07:32:31;99922.88;;;37.55;10.40
69980;BME280;57318;56.232;43.944;2023-05-15T07:34:56;99924.84;;;38.56;9.87
69980;BME280;57318;56.232;43.944;2023-05-15T07:37:22;99941.00;;;39.49;9.08
69980;BME280;57318;56.232;43.944;2023-05-15T07:39:49;99935.72;;;39.67;8.48
69980;BME280;57318;56.232;43.944;2023-05-15T07:42:14;99923.59;;;39.44;8.83
69980;BME280;57318;56.232;43.944;2023-05-15T07:44:40;99921.00;;;39.80;8.95
69980;BME280;57318;56.232;43.944;2023-05-15T07:47:06;99922.00;;;40.03;8.56
69980;BME280;57318;56.232;43.944;2023-05-15T07:49:31;99919.19;;;39.05;8.56
69980;BME280;57318;56.232;43.944;2023-05-15T07:51:57;99914.22;;;37.27;9.61
69980;BME280;57318;56.232;43.944;2023-05-15T07:54:23;99901.53;;;34.98;11.08
69980;BME280;57318;56.232;43.944;2023-05-15T07:56:49;99886.75;;;32.90;12.58
69980;BME280;57318;56.232;43.944;2023-05-15T07:59:15;99897.25;;;31.20;13.76
69980;BME280;57318;56.232;43.944;2023-05-15T08:01:41;99888.13;;;29.93;15.03
69980;BME280;57318;56.232;43.944;2023-05-15T08:04:07;99886.81;;;28.57;15.95
69980;BME280;57318;56.232;43.944;2023-05-15T08:06:34;99886.03;;;27.76;16.93
69980;BME280;57318;56.232;43.944;2023-05-15T08:09:01;99885.59;;;26.96;17.89
69980;BME280;57318;56.232;43.944;2023-05-15T08:11:27;99887.72;;;26.49;18.29
69980;BME280;57318;56.232;43.944;2023-05-15T08:13:53;99880.28;;;26.11;19.06
69980;BME280;57318;56.232;43.944;2023-05-15T08:16:19;99868.38;;;25.85;19.34
69980;BME280;57318;56.232;43.944;2023-05-15T08:18:44;99870.59;;;27.12;18.42
69980;BME280;57318;56.232;43.944;2023-05-15T08:21:10;99873.81;;;27.28;18.28
69980;BME280;57318;56.232;43.944;2023-05-15T08:23:36;99867.03;;;27.12;18.22
69980;BME280;57318;56.232;43.944;2023-05-15T08:26:02;99874.44;;;26.66;18.56
69980;BME280;57318;56.232;43.944;2023-05-15T08:28:28;99876.13;;;26.08;19.18
69980;BME280;57318;56.232;43.944;2023-05-15T08:30:53;99872.41;;;25.49;19.83
69980;BME280;57318;56.232;43.944;2023-05-15T08:33:19;99868.38;;;24.98;20.56
69980;BME280;57318;56.232;43.944;2023-05-15T08:35:45;99873.66;;;24.52;20.85
69980;BME280;57318;56.232;43.944;2023-05-15T08:38:11;99862.38;;;24.06;21.59
69980;BME280;57318;56.232;43.944;2023-05-15T08:40:36;99862.06;;;23.88;21.63
69980;BME280;57318;56.232;43.944;2023-05-15T08:43:05;99852.31;;;23.93;21.88
69980;BME280;57318;56.232;43.944;2023-05-15T08:45:35;99853.94;;;24.98;20.86
69980;BME280;57318;56.232;43.944;2023-05-15T08:48:15;99851.88;;;25.27;20.76
69980;BME280;57318;56.232;43.944;2023-05-15T08:50:42;99859.59;;;25.03;20.82
69980;BME280;57318;56.232;43.944;2023-05-15T08:53:10;99849.31;;;24.65;21.21
69980;BME280;57318;56.232;43.944;2023-05-15T08:55:37;99851.13;;;24.09;21.76
69980;BME280;57318;56.232;43.944;2023-05-15T08:58:03;99851.22;;;25.25;20.39
69980;BME280;57318;56.232;43.944;2023-05-15T09:00:29;99859.78;;;25.88;19.63
69980;BME280;57318;56.232;43.944;2023-05-15T09:02:58;99859.97;;;26.65;18.78
69980;BME280;57318;56.232;43.944;2023-05-15T09:05:25;99855.91;;;27.13;18.40
69980;BME280;57318;56.232;43.944;2023-05-15T09:07:53;99855.47;;;29.32;16.77
69980;BME280;57318;56.232;43.944;2023-05-15T09:10:19;99852.78;;;29.13;16.44
69980;BME280;57318;56.232;43.944;2023-05-15T09:12:46;99857.34;;;28.77;16.72
69980;BME280;57318;56.232;43.944;2023-05-15T09:15:18;99854.78;;;27.90;17.31
69980;BME280;57318;56.232;43.944;2023-05-15T09:17:48;99848.28;;;26.90;18.39
69980;BME280;57318;56.232;43.944;2023-05-15T09:20:29;99852.41;;;26.22;19.19
69980;BME280;57318;56.232;43.944;2023-05-15T09:22:59;99846.44;;;25.60;19.90
69980;BME280;57318;56.232;43.944;2023-05-15T09:27:59;99829.31;;;24.44;21.80
69980;BME280;57318;56.232;43.944;2023-05-15T09:30:26;99831.22;;;23.95;22.38
69980;BME280;57318;56.232;43.944;2023-05-15T09:32:53;99826.28;;;23.77;22.69
69980;BME280;57318;56.232;43.944;2023-05-15T09:35:37;99835.31;;;23.56;23.16
69980;BME280;57318;56.232;43.944;2023-05-15T09:38:07;99829.06;;;23.56;23.23
69980;BME280;57318;56.232;43.944;2023-05-15T09:40:33;99840.53;;;24.96;21.61
69980;BME280;57318;56.232;43.944;2023-05-15T09:42:59;99844.34;;;25.55;20.98
69980;BME280;57318;56.232;43.944;2023-05-15T09:45:25;99842.59;;;26.01;20.23
69980;BME280;57318;56.232;43.944;2023-05-15T09:48:02;99842.16;;;26.56;19.84
69980;BME280;57318;56.232;43.944;2023-05-15T09:50:33;99843.25;;;27.88;18.98
69980;BME280;57318;56.232;43.944;2023-05-15T09:52:59;99851.91;;;29.91;16.94
69980;BME280;57318;56.232;43.944;2023-05-15T09:55:25;99833.66;;;30.77;16.10
69980;BME280;57318;56.232;43.944;2023-05-15T09:58:13;99838.72;;;30.98;15.56
69980;BME280;57318;56.232;43.944;2023-05-15T10:00:40;99840.09;;;32.51;14.50
69980;BME280;57318;56.232;43.944;2023-05-15T10:03:08;99836.66;;;31.95;14.63
69980;BME280;57318;56.232;43.944;2023-05-15T10:05:34;99838.03;;;31.07;14.91
69980;BME280;57318;56.232;43.944;2023-05-15T10:08:01;99822.16;;;29.82;15.94
69980;BME280;57318;56.232;43.944;2023-05-15T10:10:27;99808.59;;;28.86;16.74
69980;BME280;57318;56.232;43.944;2023-05-15T10:12:56;99807.00;;;27.81;18.30
69980;BME280;57318;56.232;43.944;2023-05-15T10:15:24;99803.78;;;26.96;18.90
69980;BME280;57318;56.232;43.944;2023-05-15T10:17:50;99814.25;;;26.61;19.32
69980;BME280;57318;56.232;43.944;2023-05-15T10:20:22;99800.59;;;26.74;19.59
69980;BME280;57318;56.232;43.944;2023-05-15T10:22:50;99809.59;;;26.75;19.38
69980;BME280;57318;56.232;43.944;2023-05-15T10:25:41;99799.44;;;27.14;18.63
69980;BME280;57318;56.232;43.944;2023-05-15T10:28:10;99806.75;;;27.20;18.66
69980;BME280;57318;56.232;43.944;2023-05-15T10:30:37;99809.53;;;26.81;18.83
69980;BME280;57318;56.232;43.944;2023-05-15T10:33:04;99804.81;;;26.63;19.52
69980;BME280;57318;56.232;43.944;2023-05-15T10:35:31;99795.75;;;27.27;19.18
69980;BME280;57318;56.232;43.944;2023-05-15T10:37:58;99807.00;;;28.18;18.20
69980;BME280;57318;56.232;43.944;2023-05-15T10:40:25;99812.84;;;31.10;15.95
69980;BME280;57318;56.232;43.944;2023-05-15T10:42:53;99804.09;;;30.97;15.53
69980;BME280;57318;56.232;43.944;2023-05-15T10:45:20;99806.75;;;30.34;15.41
69980;BME280;57318;56.232;43.944;2023-05-15T10:47:46;99807.97;;;29.50;15.92
69980;BME280;57318;56.232;43.944;2023-05-15T10:50:12;99799.50;;;28.62;16.61
69980;BME280;57318;56.232;43.944;2023-05-15T10:52:38;99802.47;;;27.24;17.76
69980;BME280;57318;56.232;43.944;2023-05-15T10:55:06;99800.19;;;26.32;18.85
69980;BME280;57318;56.232;43.944;2023-05-15T10:57:32;99794.94;;;25.72;19.68
69980;BME280;57318;56.232;43.944;2023-05-15T10:59:58;99803.34;;;25.17;20.02
69980;BME280;57318;56.232;43.944;2023-05-15T11:02:25;99801.84;;;24.74;20.61
69980;BME280;57318;56.232;43.944;2023-05-15T11:04:59;99801.13;;;24.45;21.26
69980;BME280;57318;56.232;43.944;2023-05-15T11:07:26;99796.16;;;24.56;21.14
69980;BME280;57318;56.232;43.944;2023-05-15T11:09:53;99792.44;;;24.63;21.19
69980;BME280;57318;56.232;43.944;2023-05-15T11:12:20;99786.56;;;24.60;21.32
69980;BME280;57318;56.232;43.944;2023-05-15T11:17:22;99793.97;;;25.33;20.58
69980;BME280;57318;56.232;43.944;2023-05-15T11:25:05;99797.28;;;25.35;20.26
69980;BME280;57318;56.232;43.944;2023-05-15T11:27:41;99791.63;;;25.56;20.59
69980;BME280;57318;56.232;43.944;2023-05-15T11:30:14;99790.94;;;25.74;20.40
69980;BME280;57318;56.232;43.944;2023-05-15T11:35:31;99788.94;;;26.15;19.42
69980;BME280;57318;56.232;43.944;2023-05-15T11:38:02;99791.34;;;27.51;18.55
69980;BME280;57318;56.232;43.944;2023-05-15T11:40:30;99789.78;;;27.80;17.94
69980;BME280;57318;56.232;43.944;2023-05-15T11:43:22;99791.31;;;27.58;17.77
69980;BME280;57318;56.232;43.944;2023-05-15T11:45:52;99790.25;;;27.33;17.99
69980;BME280;57318;56.232;43.944;2023-05-15T11:48:21;99778.00;;;26.92;18.18
69980;BME280;57318;56.232;43.944;2023-05-15T11:50:48;99783.34;;;26.42;19.02
69980;BME280;57318;56.232;43.944;2023-05-15T11:53:14;99775.13;;;26.48;19.27
69980;BME280;57318;56.232;43.944;2023-05-15T11:55:42;99778.13;;;25.88;19.53
69980;BME280;57318;56.232;43.944;2023-05-15T11:58:13;99773.22;;;25.52;19.84
69980;BME280;57318;56.232;43.944;2023-05-15T12:00:41;99778.13;;;27.29;18.71
69980;BME280;57318;56.232;43.944;2023-05-15T12:03:14;99782.94;;;29.11;17.16
69980;BME280;57318;56.232;43.944;2023-05-15T12:05:41;99776.16;;;31.00;15.36
69980;BME280;57318;56.232;43.944;2023-05-15T12:08:11;99779.03;;;32.27;13.95
69980;BME280;57318;56.232;43.944;2023-05-15T12:10:44;99780.97;;;33.14;13.57
69980;BME280;57318;56.232;43.944;2023-05-15T12:13:11;99768.31;;;33.13;12.93
69980;BME280;57318;56.232;43.944;2023-05-15T12:15:38;99775.72;;;32.03;14.12
69980;BME280;57318;56.232;43.944;2023-05-15T12:18:05;99766.19;;;31.10;14.31
69980;BME280;57318;56.232;43.944;2023-05-15T12:20:36;99768.91;;;32.06;13.89
69980;BME280;57318;56.232;43.944;2023-05-15T12:23:03;99766.59;;;32.74;13.16
69980;BME280;57318;56.232;43.944;2023-05-15T12:25:31;99764.50;;;32.86;13.01
69980;BME280;57318;56.232;43.944;2023-05-15T12:28:02;99759.44;;;31.01;14.21
69980;BME280;57318;56.232;43.944;2023-05-15T12:30:30;99764.00;;;30.33;14.86
69980;BME280;57318;56.232;43.944;2023-05-15T12:33:03;99758.84;;;30.82;14.72
69980;BME280;57318;56.232;43.944;2023-05-15T12:35:42;99766.69;;;31.24;14.11
69980;BME280;57318;56.232;43.944;2023-05-15T12:38:08;99762.91;;;31.87;14.06
69980;BME280;57318;56.232;43.944;2023-05-15T12:40:38;99762.66;;;32.92;13.15
69980;BME280;57318;56.232;43.944;2023-05-15T12:43:05;99755.81;;;33.37;13.15
69980;BME280;57318;56.232;43.944;2023-05-15T12:45:31;99759.13;;;33.92;12.61
69980;BME280;57318;56.232;43.944;2023-05-15T12:48:21;99765.59;;;34.24;12.30
69980;BME280;57318;56.232;43.944;2023-05-15T12:50:48;99755.44;;;33.66;12.26
69980;BME280;57318;56.232;43.944;2023-05-15T12:53:15;99755.53;;;33.39;12.57
69980;BME280;57318;56.232;43.944;2023-05-15T12:55:44;99753.22;;;33.68;12.44
69980;BME280;57318;56.232;43.944;2023-05-15T12:58:12;99755.84;;;33.42;12.92
69980;BME280;57318;56.232;43.944;2023-05-15T13:00:40;99756.34;;;32.64;13.18
69980;BME280;57318;56.232;43.944;2023-05-15T13:03:10;99756.44;;;32.20;13.47
69980;BME280;57318;56.232;43.944;2023-05-15T13:05:38;99757.44;;;32.36;13.39
69980;BME280;57318;56.232;43.944;2023-05-15T13:08:05;99753.13;;;32.72;13.20
69980;BME280;57318;56.232;43.944;2023-05-15T13:10:35;99761.25;;;33.22;12.98
69980;BME280;57318;56.232;43.944;2023-05-15T13:13:02;99762.19;;;33.05;12.62
69980;BME280;57318;56.232;43.944;2023-05-15T13:15:30;99756.38;;;32.15;13.29
69980;BME280;57318;56.232;43.944;2023-05-15T13:17:59;99754.16;;;32.12;13.36